sensor_id;sensor_type;location;lat;lon;timestamp;P1;durP1;ratioP1;P2;durP2;ratioP2
59854;SDS011;45732;52.850;6.896;2023-04-24T00:00:05;1.60;;;1.40;;
59854;SDS011;45732;52.850;6.896;2023-04-24T00:02:32;1.27;;;1.15;;
59854;SDS011;45732;52.850;6.896;2023-04-24T00:04:58;2.13;;;1.60;;
59854;SDS011;45732;52.850;6.896;2023-04-24T00:07:27;2.97;;;1.88;;
59854;SDS011;45732;52.850;6.896;2023-04-24T00:09:52;2.65;;;2.05;;
59854;SDS011;45732;52.850;6.896;2023-04-24T00:12:18;3.33;;;2.28;;
59854;SDS011;45732;52.850;6.896;2023-04-24T00:14:44;3.60;;;2.42;;
59854;SDS011;45732;52.850;6.896;2023-04-24T00:17:09;2.85;;;2.38;;
59854;SDS011;45732;52.850;6.896;2023-04-24T00:19:35;3.25;;;2.45;;
59854;SDS011;45732;52.850;6.896;2023-04-24T00:22:01;3.60;;;2.65;;
59854;SDS011;45732;52.850;6.896;2023-04-24T00:24:27;3.88;;;2.90;;
59854;SDS011;45732;52.850;6.896;2023-04-24T00:26:53;3.78;;;2.97;;
59854;SDS011;45732;52.850;6.896;2023-04-24T00:29:19;4.70;;;3.10;;
59854;SDS011;45732;52.850;6.896;2023-04-24T00:31:44;4.90;;;3.00;;
59854;SDS011;45732;52.850;6.896;2023-04-24T00:34:10;4.70;;;3.15;;
59854;SDS011;45732;52.850;6.896;2023-04-24T00:36:37;4.13;;;3.10;;
59854;SDS011;45732;52.850;6.896;2023-04-24T00:39:03;4.80;;;3.13;;
59854;SDS011;45732;52.850;6.896;2023-04-24T00:41:28;3.55;;;2.72;;
59854;SDS011;45732;52.850;6.896;2023-04-24T00:43:55;3.97;;;2.80;;
59854;SDS011;45732;52.850;6.896;2023-04-24T00:46:20;4.53;;;2.97;;
59854;SDS011;45732;52.850;6.896;2023-04-24T00:48:46;4.07;;;3.13;;
59854;SDS011;45732;52.850;6.896;2023-04-24T00:51:12;4.22;;;2.83;;
59854;SDS011;45732;52.850;6.896;2023-04-24T00:53:38;3.67;;;2.50;;
59854;SDS011;45732;52.850;6.896;2023-04-24T00:56:03;2.63;;;2.13;;
59854;SDS011;45732;52.850;6.896;2023-04-24T00:58:30;5.07;;;2.50;;
59854;SDS011;45732;52.850;6.896;2023-04-24T01:00:57;4.13;;;2.25;;
59854;SDS011;45732;52.850;6.896;2023-04-24T01:03:24;3.97;;;2.50;;
59854;SDS011;45732;52.850;6.896;2023-04-24T01:05:54;2.85;;;2.15;;
59854;SDS011;45732;52.850;6.896;2023-04-24T01:08:20;4.05;;;2.30;;
59854;SDS011;45732;52.850;6.896;2023-04-24T01:10:48;3.13;;;2.40;;
59854;SDS011;45732;52.850;6.896;2023-04-24T01:13:21;3.58;;;2.33;;
59854;SDS011;45732;52.850;6.896;2023-04-24T01:15:47;2.97;;;2.38;;
59854;SDS011;45732;52.850;6.896;2023-04-24T01:18:13;3.10;;;2.33;;
59854;SDS011;45732;52.850;6.896;2023-04-24T01:20:39;2.97;;;2.10;;
59854;SDS011;45732;52.850;6.896;2023-04-24T01:23:07;3.78;;;2.47;;
59854;SDS011;45732;52.850;6.896;2023-04-24T01:25:33;3.95;;;2.28;;
59854;SDS011;45732;52.850;6.896;2023-04-24T01:27:59;3.25;;;2.33;;
59854;SDS011;45732;52.850;6.896;2023-04-24T01:30:25;3.42;;;2.20;;
59854;SDS011;45732;52.850;6.896;2023-04-24T01:32:52;2.97;;;2.38;;
59854;SDS011;45732;52.850;6.896;2023-04-24T01:35:18;3.35;;;2.70;;
59854;SDS011;45732;52.850;6.896;2023-04-24T01:37:45;2.75;;;2.50;;
59854;SDS011;45732;52.850;6.896;2023-04-24T01:40:11;3.58;;;2.65;;
59854;SDS011;45732;52.850;6.896;2023-04-24T01:42:37;3.45;;;2.60;;
59854;SDS011;45732;52.850;6.896;2023-04-24T01:45:03;4.55;;;2.83;;
59854;SDS011;45732;52.850;6.896;2023-04-24T01:47:30;4.93;;;3.10;;
59854;SDS011;45732;52.850;6.896;2023-04-24T01:49:56;5.10;;;3.10;;
59854;SDS011;45732;52.850;6.896;2023-04-24T01:52:23;4.97;;;3.40;;
59854;SDS011;45732;52.850;6.896;2023-04-24T01:54:48;5.32;;;2.88;;
59854;SDS011;45732;52.850;6.896;2023-04-24T01:57:14;4.25;;;3.05;;
59854;SDS011;45732;52.850;6.896;2023-04-24T01:59:42;4.82;;;3.47;;
59854;SDS011;45732;52.850;6.896;2023-04-24T02:02:08;4.75;;;3.33;;
59854;SDS011;45732;52.850;6.896;2023-04-24T02:04:33;5.45;;;3.63;;
59854;SDS011;45732;52.850;6.896;2023-04-24T02:06:59;6.10;;;4.20;;
59854;SDS011;45732;52.850;6.896;2023-04-24T02:09:25;9.63;;;5.20;;
59854;SDS011;45732;52.850;6.896;2023-04-24T02:11:50;7.97;;;4.38;;
59854;SDS011;45732;52.850;6.896;2023-04-24T02:14:16;6.25;;;4.63;;
59854;SDS011;45732;52.850;6.896;2023-04-24T02:16:42;6.97;;;5.10;;
59854;SDS011;45732;52.850;6.896;2023-04-24T02:19:09;9.02;;;5.45;;
59854;SDS011;45732;52.850;6.896;2023-04-24T02:21:35;8.35;;;5.88;;
59854;SDS011;45732;52.850;6.896;2023-04-24T02:24:01;8.80;;;6.45;;
59854;SDS011;45732;52.850;6.896;2023-04-24T02:26:27;8.57;;;5.88;;
59854;SDS011;45732;52.850;6.896;2023-04-24T02:28:53;9.68;;;6.53;;
59854;SDS011;45732;52.850;6.896;2023-04-24T02:31:18;7.95;;;6.47;;
59854;SDS011;45732;52.850;6.896;2023-04-24T02:33:44;8.85;;;6.80;;
59854;SDS011;45732;52.850;6.896;2023-04-24T02:36:10;10.15;;;6.78;;
59854;SDS011;45732;52.850;6.896;2023-04-24T02:38:35;9.18;;;6.18;;
59854;SDS011;45732;52.850;6.896;2023-04-24T02:41:01;8.30;;;6.53;;
59854;SDS011;45732;52.850;6.896;2023-04-24T02:43:31;9.15;;;6.63;;
59854;SDS011;45732;52.850;6.896;2023-04-24T02:45:57;8.05;;;6.63;;
59854;SDS011;45732;52.850;6.896;2023-04-24T02:48:23;8.00;;;6.68;;
59854;SDS011;45732;52.850;6.896;2023-04-24T02:50:49;8.48;;;7.18;;
59854;SDS011;45732;52.850;6.896;2023-04-24T02:53:15;10.30;;;6.63;;
59854;SDS011;45732;52.850;6.896;2023-04-24T02:55:41;7.95;;;6.60;;
59854;SDS011;45732;52.850;6.896;2023-04-24T02:58:07;8.55;;;6.90;;
59854;SDS011;45732;52.850;6.896;2023-04-24T03:00:33;8.85;;;6.57;;
59854;SDS011;45732;52.850;6.896;2023-04-24T03:02:59;8.85;;;6.43;;
59854;SDS011;45732;52.850;6.896;2023-04-24T03:05:24;7.82;;;6.47;;
59854;SDS011;45732;52.850;6.896;2023-04-24T03:07:50;7.65;;;6.38;;
59854;SDS011;45732;52.850;6.896;2023-04-24T03:10:17;8.57;;;6.65;;
59854;SDS011;45732;52.850;6.896;2023-04-24T03:12:43;8.13;;;6.40;;
59854;SDS011;45732;52.850;6.896;2023-04-24T03:15:09;9.63;;;6.28;;
59854;SDS011;45732;52.850;6.896;2023-04-24T03:17:35;8.05;;;6.13;;
59854;SDS011;45732;52.850;6.896;2023-04-24T03:20:02;8.57;;;6.03;;
59854;SDS011;45732;52.850;6.896;2023-04-24T03:22:30;8.35;;;6.22;;
59854;SDS011;45732;52.850;6.896;2023-04-24T03:24:57;9.25;;;6.30;;
59854;SDS011;45732;52.850;6.896;2023-04-24T03:27:23;8.15;;;5.95;;
59854;SDS011;45732;52.850;6.896;2023-04-24T03:29:49;8.23;;;6.20;;
59854;SDS011;45732;52.850;6.896;2023-04-24T03:32:19;7.35;;;5.75;;
59854;SDS011;45732;52.850;6.896;2023-04-24T03:34:44;8.25;;;5.70;;
59854;SDS011;45732;52.850;6.896;2023-04-24T03:37:10;7.85;;;6.15;;
59854;SDS011;45732;52.850;6.896;2023-04-24T03:39:36;7.78;;;5.50;;
59854;SDS011;45732;52.850;6.896;2023-04-24T03:42:01;9.15;;;5.82;;
59854;SDS011;45732;52.850;6.896;2023-04-24T03:44:27;8.32;;;5.82;;
59854;SDS011;45732;52.850;6.896;2023-04-24T03:46:53;8.63;;;5.95;;
59854;SDS011;45732;52.850;6.896;2023-04-24T03:49:18;7.70;;;6.10;;
59854;SDS011;45732;52.850;6.896;2023-04-24T03:51:45;7.50;;;5.88;;
59854;SDS011;45732;52.850;6.896;2023-04-24T03:54:11;8.38;;;6.68;;
59854;SDS011;45732;52.850;6.896;2023-04-24T03:56:36;9.15;;;6.57;;
59854;SDS011;45732;52.850;6.896;2023-04-24T03:59:02;8.93;;;6.38;;
59854;SDS011;45732;52.850;6.896;2023-04-24T04:01:28;10.27;;;7.25;;
59854;SDS011;45732;52.850;6.896;2023-04-24T04:03:54;9.30;;;7.00;;
59854;SDS011;45732;52.850;6.896;2023-04-24T04:06:19;9.38;;;7.20;;
59854;SDS011;45732;52.850;6.896;2023-04-24T04:08:46;9.15;;;6.82;;
59854;SDS011;45732;52.850;6.896;2023-04-24T04:11:12;9.63;;;6.95;;
59854;SDS011;45732;52.850;6.896;2023-04-24T04:13:38;8.35;;;7.15;;
59854;SDS011;45732;52.850;6.896;2023-04-24T04:16:04;9.13;;;7.03;;
59854;SDS011;45732;52.850;6.896;2023-04-24T04:18:29;8.45;;;6.93;;
59854;SDS011;45732;52.850;6.896;2023-04-24T04:20:55;9.40;;;7.00;;
59854;SDS011;45732;52.850;6.896;2023-04-24T04:23:22;8.73;;;6.70;;
59854;SDS011;45732;52.850;6.896;2023-04-24T04:25:48;9.35;;;7.10;;
59854;SDS011;45732;52.850;6.896;2023-04-24T04:28:15;8.30;;;6.38;;
59854;SDS011;45732;52.850;6.896;2023-04-24T04:30:40;9.00;;;6.60;;
59854;SDS011;45732;52.850;6.896;2023-04-24T04:33:07;10.43;;;6.88;;
59854;SDS011;45732;52.850;6.896;2023-04-24T04:35:33;8.07;;;6.15;;
59854;SDS011;45732;52.850;6.896;2023-04-24T04:37:59;8.68;;;6.90;;
59854;SDS011;45732;52.850;6.896;2023-04-24T04:40:25;9.23;;;7.57;;
59854;SDS011;45732;52.850;6.896;2023-04-24T04:42:53;11.10;;;7.72;;
59854;SDS011;45732;52.850;6.896;2023-04-24T04:45:19;9.75;;;7.95;;
59854;SDS011;45732;52.850;6.896;2023-04-24T04:47:45;9.00;;;7.15;;
59854;SDS011;45732;52.850;6.896;2023-04-24T04:50:11;10.73;;;7.75;;
59854;SDS011;45732;52.850;6.896;2023-04-24T04:52:37;9.23;;;7.13;;
59854;SDS011;45732;52.850;6.896;2023-04-24T04:55:03;10.88;;;7.57;;
59854;SDS011;45732;52.850;6.896;2023-04-24T04:57:30;11.02;;;7.43;;
59854;SDS011;45732;52.850;6.896;2023-04-24T04:59:56;9.25;;;7.55;;
59854;SDS011;45732;52.850;6.896;2023-04-24T05:02:21;9.23;;;6.93;;
59854;SDS011;45732;52.850;6.896;2023-04-24T05:04:47;9.45;;;7.05;;
59854;SDS011;45732;52.850;6.896;2023-04-24T05:07:13;10.02;;;7.10;;
59854;SDS011;45732;52.850;6.896;2023-04-24T05:09:38;8.77;;;6.97;;
59854;SDS011;45732;52.850;6.896;2023-04-24T05:12:04;8.85;;;7.38;;
59854;SDS011;45732;52.850;6.896;2023-04-24T05:14:30;9.02;;;7.00;;
59854;SDS011;45732;52.850;6.896;2023-04-24T05:16:56;10.65;;;7.88;;
59854;SDS011;45732;52.850;6.896;2023-04-24T05:19:22;9.23;;;7.32;;
59854;SDS011;45732;52.850;6.896;2023-04-24T05:21:47;10.25;;;7.55;;
59854;SDS011;45732;52.850;6.896;2023-04-24T05:24:13;9.02;;;7.20;;
59854;SDS011;45732;52.850;6.896;2023-04-24T05:26:39;9.73;;;6.80;;
59854;SDS011;45732;52.850;6.896;2023-04-24T05:29:04;8.60;;;6.95;;
59854;SDS011;45732;52.850;6.896;2023-04-24T05:31:30;8.75;;;6.93;;
59854;SDS011;45732;52.850;6.896;2023-04-24T05:33:56;10.80;;;7.20;;
59854;SDS011;45732;52.850;6.896;2023-04-24T05:36:22;9.57;;;6.50;;
59854;SDS011;45732;52.850;6.896;2023-04-24T05:38:47;8.70;;;6.90;;
59854;SDS011;45732;52.850;6.896;2023-04-24T05:41:13;8.38;;;6.18;;
59854;SDS011;45732;52.850;6.896;2023-04-24T05:43:40;8.88;;;6.00;;
59854;SDS011;45732;52.850;6.896;2023-04-24T05:46:05;6.70;;;5.10;;
59854;SDS011;45732;52.850;6.896;2023-04-24T05:48:31;7.70;;;5.22;;
59854;SDS011;45732;52.850;6.896;2023-04-24T05:50:57;7.53;;;5.43;;
59854;SDS011;45732;52.850;6.896;2023-04-24T05:53:22;7.05;;;4.85;;
59854;SDS011;45732;52.850;6.896;2023-04-24T05:55:48;6.72;;;5.60;;
59854;SDS011;45732;52.850;6.896;2023-04-24T05:58:14;6.32;;;4.43;;
59854;SDS011;45732;52.850;6.896;2023-04-24T06:00:40;7.35;;;4.72;;
59854;SDS011;45732;52.850;6.896;2023-04-24T06:03:07;5.75;;;4.05;;
59854;SDS011;45732;52.850;6.896;2023-04-24T06:05:33;7.38;;;5.60;;
59854;SDS011;45732;52.850;6.896;2023-04-24T06:08:00;6.75;;;4.68;;
59854;SDS011;45732;52.850;6.896;2023-04-24T06:10:25;7.18;;;4.13;;
59854;SDS011;45732;52.850;6.896;2023-04-24T06:12:52;6.90;;;4.70;;
59854;SDS011;45732;52.850;6.896;2023-04-24T06:15:21;6.50;;;4.38;;
59854;SDS011;45732;52.850;6.896;2023-04-24T06:17:47;7.75;;;4.63;;
59854;SDS011;45732;52.850;6.896;2023-04-24T06:20:12;6.22;;;4.18;;
59854;SDS011;45732;52.850;6.896;2023-04-24T06:22:38;5.95;;;3.92;;
59854;SDS011;45732;52.850;6.896;2023-04-24T06:25:05;6.78;;;4.45;;
59854;SDS011;45732;52.850;6.896;2023-04-24T06:27:32;8.32;;;4.03;;
59854;SDS011;45732;52.850;6.896;2023-04-24T06:29:58;5.72;;;3.55;;
59854;SDS011;45732;52.850;6.896;2023-04-24T06:32:23;4.75;;;3.05;;
59854;SDS011;45732;52.850;6.896;2023-04-24T06:34:52;7.78;;;4.28;;
59854;SDS011;45732;52.850;6.896;2023-04-24T06:37:18;5.63;;;2.92;;
59854;SDS011;45732;52.850;6.896;2023-04-24T06:39:47;7.40;;;6.13;;
59854;SDS011;45732;52.850;6.896;2023-04-24T06:42:13;4.65;;;2.72;;
59854;SDS011;45732;52.850;6.896;2023-04-24T06:44:39;5.55;;;3.70;;
59854;SDS011;45732;52.850;6.896;2023-04-24T06:47:08;4.00;;;2.40;;
59854;SDS011;45732;52.850;6.896;2023-04-24T06:49:37;5.18;;;3.08;;
59854;SDS011;45732;52.850;6.896;2023-04-24T06:52:03;4.70;;;2.88;;
59854;SDS011;45732;52.850;6.896;2023-04-24T06:54:30;4.13;;;2.72;;
59854;SDS011;45732;52.850;6.896;2023-04-24T06:56:56;4.68;;;2.58;;
59854;SDS011;45732;52.850;6.896;2023-04-24T06:59:23;4.90;;;2.65;;
59854;SDS011;45732;52.850;6.896;2023-04-24T07:01:49;5.45;;;2.47;;
59854;SDS011;45732;52.850;6.896;2023-04-24T07:04:16;4.55;;;2.65;;
59854;SDS011;45732;52.850;6.896;2023-04-24T07:06:42;4.75;;;2.80;;
59854;SDS011;45732;52.850;6.896;2023-04-24T07:09:09;4.97;;;2.88;;
59854;SDS011;45732;52.850;6.896;2023-04-24T07:11:35;5.82;;;3.63;;
59854;SDS011;45732;52.850;6.896;2023-04-24T07:14:02;6.13;;;2.72;;
59854;SDS011;45732;52.850;6.896;2023-04-24T07:16:28;4.93;;;3.00;;
59854;SDS011;45732;52.850;6.896;2023-04-24T07:18:55;5.82;;;3.40;;
59854;SDS011;45732;52.850;6.896;2023-04-24T07:21:20;5.00;;;2.90;;
59854;SDS011;45732;52.850;6.896;2023-04-24T07:23:46;4.70;;;2.60;;
59854;SDS011;45732;52.850;6.896;2023-04-24T07:26:12;4.80;;;2.97;;
59854;SDS011;45732;52.850;6.896;2023-04-24T07:28:39;4.78;;;2.72;;
59854;SDS011;45732;52.850;6.896;2023-04-24T07:31:06;4.68;;;2.75;;
59854;SDS011;45732;52.850;6.896;2023-04-24T07:33:32;4.10;;;2.28;;
59854;SDS011;45732;52.850;6.896;2023-04-24T07:35:58;4.88;;;2.42;;
59854;SDS011;45732;52.850;6.896;2023-04-24T07:38:24;4.20;;;2.67;;
59854;SDS011;45732;52.850;6.896;2023-04-24T07:40:51;3.45;;;2.22;;
59854;SDS011;45732;52.850;6.896;2023-04-24T07:43:16;3.47;;;2.17;;
59854;SDS011;45732;52.850;6.896;2023-04-24T07:45:43;4.03;;;2.85;;
59854;SDS011;45732;52.850;6.896;2023-04-24T07:48:09;6.07;;;3.40;;
59854;SDS011;45732;52.850;6.896;2023-04-24T07:50:35;4.32;;;2.63;;
59854;SDS011;45732;52.850;6.896;2023-04-24T07:53:01;6.47;;;4.82;;
59854;SDS011;45732;52.850;6.896;2023-04-24T07:55:28;4.00;;;2.20;;
59854;SDS011;45732;52.850;6.896;2023-04-24T07:57:53;7.00;;;4.72;;
59854;SDS011;45732;52.850;6.896;2023-04-24T08:00:19;4.55;;;2.72;;
59854;SDS011;45732;52.850;6.896;2023-04-24T08:02:45;5.47;;;3.10;;
59854;SDS011;45732;52.850;6.896;2023-04-24T08:05:11;5.55;;;3.50;;
59854;SDS011;45732;52.850;6.896;2023-04-24T08:07:37;6.35;;;4.03;;
59854;SDS011;45732;52.850;6.896;2023-04-24T08:10:03;3.80;;;2.03;;
59854;SDS011;45732;52.850;6.896;2023-04-24T08:12:30;5.28;;;2.03;;
59854;SDS011;45732;52.850;6.896;2023-04-24T08:14:56;3.10;;;2.10;;
59854;SDS011;45732;52.850;6.896;2023-04-24T08:17:21;3.72;;;2.10;;
59854;SDS011;45732;52.850;6.896;2023-04-24T08:19:47;5.85;;;3.28;;
59854;SDS011;45732;52.850;6.896;2023-04-24T08:22:14;6.03;;;2.28;;
59854;SDS011;45732;52.850;6.896;2023-04-24T08:24:42;5.07;;;2.58;;
59854;SDS011;45732;52.850;6.896;2023-04-24T08:27:09;4.53;;;2.55;;
59854;SDS011;45732;52.850;6.896;2023-04-24T08:29:35;4.97;;;2.70;;
59854;SDS011;45732;52.850;6.896;2023-04-24T08:32:01;5.55;;;2.53;;
59854;SDS011;45732;52.850;6.896;2023-04-24T08:34:27;4.60;;;2.97;;
59854;SDS011;45732;52.850;6.896;2023-04-24T08:36:53;4.75;;;2.35;;
59854;SDS011;45732;52.850;6.896;2023-04-24T08:39:19;4.97;;;2.30;;
59854;SDS011;45732;52.850;6.896;2023-04-24T08:41:45;5.00;;;2.60;;
59854;SDS011;45732;52.850;6.896;2023-04-24T08:44:13;6.70;;;2.35;;
59854;SDS011;45732;52.850;6.896;2023-04-24T08:46:42;6.47;;;2.28;;
59854;SDS011;45732;52.850;6.896;2023-04-24T08:49:10;6.85;;;2.83;;
59854;SDS011;45732;52.850;6.896;2023-04-24T08:51:38;4.55;;;2.22;;
59854;SDS011;45732;52.850;6.896;2023-04-24T08:54:04;7.22;;;2.92;;
59854;SDS011;45732;52.850;6.896;2023-04-24T08:56:32;8.65;;;3.65;;
59854;SDS011;45732;52.850;6.896;2023-04-24T08:58:59;11.60;;;6.00;;
59854;SDS011;45732;52.850;6.896;2023-04-24T09:01:25;10.27;;;5.22;;
59854;SDS011;45732;52.850;6.896;2023-04-24T09:03:51;9.75;;;5.63;;
59854;SDS011;45732;52.850;6.896;2023-04-24T09:06:19;11.27;;;5.88;;
59854;SDS011;45732;52.850;6.896;2023-04-24T09:08:48;13.27;;;7.82;;
59854;SDS011;45732;52.850;6.896;2023-04-24T09:11:16;13.20;;;8.38;;
59854;SDS011;45732;52.850;6.896;2023-04-24T09:13:42;17.50;;;9.57;;
59854;SDS011;45732;52.850;6.896;2023-04-24T09:16:08;16.60;;;10.45;;
59854;SDS011;45732;52.850;6.896;2023-04-24T09:18:34;20.05;;;11.73;;
59854;SDS011;45732;52.850;6.896;2023-04-24T09:21:04;18.50;;;11.52;;
59854;SDS011;45732;52.850;6.896;2023-04-24T09:23:32;16.02;;;10.05;;
59854;SDS011;45732;52.850;6.896;2023-04-24T09:25:59;17.73;;;10.93;;
59854;SDS011;45732;52.850;6.896;2023-04-24T09:28:29;16.40;;;11.20;;
59854;SDS011;45732;52.850;6.896;2023-04-24T09:31:07;16.40;;;11.05;;
59854;SDS011;45732;52.850;6.896;2023-04-24T09:33:38;18.35;;;11.68;;
59854;SDS011;45732;52.850;6.896;2023-04-24T09:36:04;17.90;;;12.15;;
59854;SDS011;45732;52.850;6.896;2023-04-24T09:38:32;17.92;;;11.55;;
59854;SDS011;45732;52.850;6.896;2023-04-24T09:41:02;19.63;;;12.55;;
59854;SDS011;45732;52.850;6.896;2023-04-24T09:43:32;17.45;;;12.15;;
59854;SDS011;45732;52.850;6.896;2023-04-24T09:45:58;20.85;;;13.02;;
59854;SDS011;45732;52.850;6.896;2023-04-24T09:48:32;23.05;;;14.57;;
59854;SDS011;45732;52.850;6.896;2023-04-24T09:51:00;22.52;;;14.57;;
59854;SDS011;45732;52.850;6.896;2023-04-24T09:53:28;23.33;;;15.02;;
59854;SDS011;45732;52.850;6.896;2023-04-24T09:55:55;23.52;;;16.15;;
59854;SDS011;45732;52.850;6.896;2023-04-24T09:58:25;24.38;;;15.38;;
59854;SDS011;45732;52.850;6.896;2023-04-24T10:00:54;23.60;;;16.00;;
59854;SDS011;45732;52.850;6.896;2023-04-24T10:03:23;22.98;;;15.77;;
59854;SDS011;45732;52.850;6.896;2023-04-24T10:05:53;24.90;;;15.75;;
59854;SDS011;45732;52.850;6.896;2023-04-24T10:08:20;22.27;;;15.57;;
59854;SDS011;45732;52.850;6.896;2023-04-24T10:10:46;23.95;;;14.98;;
59854;SDS011;45732;52.850;6.896;2023-04-24T10:13:13;21.80;;;15.50;;
59854;SDS011;45732;52.850;6.896;2023-04-24T10:15:40;24.30;;;15.35;;
59854;SDS011;45732;52.850;6.896;2023-04-24T10:18:07;24.42;;;14.30;;
59854;SDS011;45732;52.850;6.896;2023-04-24T10:20:34;17.80;;;13.38;;
59854;SDS011;45732;52.850;6.896;2023-04-24T10:23:02;21.08;;;12.88;;
59854;SDS011;45732;52.850;6.896;2023-04-24T10:25:29;17.60;;;13.00;;
59854;SDS011;45732;52.850;6.896;2023-04-24T10:27:57;19.75;;;13.00;;
59854;SDS011;45732;52.850;6.896;2023-04-24T10:30:27;19.10;;;12.90;;
59854;SDS011;45732;52.850;6.896;2023-04-24T10:33:06;20.35;;;12.73;;
59854;SDS011;45732;52.850;6.896;2023-04-24T10:35:38;19.80;;;11.18;;
59854;SDS011;45732;52.850;6.896;2023-04-24T10:38:08;17.77;;;10.30;;
59854;SDS011;45732;52.850;6.896;2023-04-24T10:40:37;17.25;;;9.93;;
59854;SDS011;45732;52.850;6.896;2023-04-24T10:43:03;17.20;;;9.15;;
59854;SDS011;45732;52.850;6.896;2023-04-24T10:45:34;17.13;;;8.80;;
59854;SDS011;45732;52.850;6.896;2023-04-24T10:48:09;13.65;;;8.65;;
59854;SDS011;45732;52.850;6.896;2023-04-24T10:53:17;15.82;;;7.97;;
59854;SDS011;45732;52.850;6.896;2023-04-24T10:55:46;14.52;;;7.20;;
59854;SDS011;45732;52.850;6.896;2023-04-24T10:58:13;19.48;;;7.40;;
59854;SDS011;45732;52.850;6.896;2023-04-24T11:00:41;14.90;;;6.93;;
59854;SDS011;45732;52.850;6.896;2023-04-24T11:03:25;17.20;;;7.32;;
59854;SDS011;45732;52.850;6.896;2023-04-24T11:11:12;14.52;;;7.00;;
59854;SDS011;45732;52.850;6.896;2023-04-24T11:26:57;11.68;;;4.10;;
59854;SDS011;45732;52.850;6.896;2023-04-24T11:32:19;13.70;;;4.35;;
59854;SDS011;45732;52.850;6.896;2023-04-24T11:34:45;12.27;;;4.30;;
59854;SDS011;45732;52.850;6.896;2023-04-24T11:37:15;12.18;;;4.13;;
59854;SDS011;45732;52.850;6.896;2023-04-24T11:39:41;10.23;;;4.28;;
59854;SDS011;45732;52.850;6.896;2023-04-24T11:42:08;11.77;;;4.50;;
59854;SDS011;45732;52.850;6.896;2023-04-24T11:44:35;16.48;;;4.47;;
59854;SDS011;45732;52.850;6.896;2023-04-24T11:47:05;11.55;;;3.78;;
59854;SDS011;45732;52.850;6.896;2023-04-24T11:49:32;9.35;;;3.83;;
59854;SDS011;45732;52.850;6.896;2023-04-24T11:51:57;11.20;;;4.25;;
59854;SDS011;45732;52.850;6.896;2023-04-24T11:54:26;12.10;;;3.90;;
59854;SDS011;45732;52.850;6.896;2023-04-24T11:56:52;12.35;;;4.07;;
59854;SDS011;45732;52.850;6.896;2023-04-24T11:59:17;10.82;;;3.78;;
59854;SDS011;45732;52.850;6.896;2023-04-24T12:01:47;8.52;;;3.60;;
59854;SDS011;45732;52.850;6.896;2023-04-24T12:04:14;11.57;;;3.25;;
59854;SDS011;45732;52.850;6.896;2023-04-24T12:07:02;11.90;;;3.63;;
59854;SDS011;45732;52.850;6.896;2023-04-24T12:09:28;11.45;;;4.07;;
59854;SDS011;45732;52.850;6.896;2023-04-24T12:12:05;8.95;;;3.15;;
59854;SDS011;45732;52.850;6.896;2023-04-24T12:14:31;10.98;;;3.88;;
59854;SDS011;45732;52.850;6.896;2023-04-24T12:16:57;10.82;;;2.72;;
59854;SDS011;45732;52.850;6.896;2023-04-24T12:19:23;11.80;;;2.90;;
59854;SDS011;45732;52.850;6.896;2023-04-24T12:22:01;10.15;;;3.03;;
59854;SDS011;45732;52.850;6.896;2023-04-24T12:24:29;10.35;;;2.83;;
59854;SDS011;45732;52.850;6.896;2023-04-24T12:26:55;11.48;;;3.15;;
59854;SDS011;45732;52.850;6.896;2023-04-24T12:29:23;10.18;;;3.42;;
59854;SDS011;45732;52.850;6.896;2023-04-24T12:31:53;10.95;;;2.90;;
59854;SDS011;45732;52.850;6.896;2023-04-24T12:34:20;9.45;;;2.47;;
59854;SDS011;45732;52.850;6.896;2023-04-24T12:36:47;11.32;;;2.30;;
59854;SDS011;45732;52.850;6.896;2023-04-24T12:39:16;5.78;;;2.25;;
59854;SDS011;45732;52.850;6.896;2023-04-24T12:41:55;10.35;;;2.40;;
59854;SDS011;45732;52.850;6.896;2023-04-24T12:44:32;7.45;;;2.13;;
59854;SDS011;45732;52.850;6.896;2023-04-24T12:47:00;8.30;;;2.50;;
59854;SDS011;45732;52.850;6.896;2023-04-24T12:49:29;8.63;;;2.30;;
59854;SDS011;45732;52.850;6.896;2023-04-24T12:51:56;8.35;;;2.13;;
59854;SDS011;45732;52.850;6.896;2023-04-24T12:54:22;8.20;;;2.15;;
59854;SDS011;45732;52.850;6.896;2023-04-24T12:56:48;9.40;;;2.22;;
59854;SDS011;45732;52.850;6.896;2023-04-24T12:59:13;11.88;;;2.70;;
59854;SDS011;45732;52.850;6.896;2023-04-24T13:01:40;7.97;;;2.20;;
59854;SDS011;45732;52.850;6.896;2023-04-24T13:04:06;8.15;;;2.00;;
59854;SDS011;45732;52.850;6.896;2023-04-24T13:06:32;8.32;;;2.63;;
59854;SDS011;45732;52.850;6.896;2023-04-24T13:08:57;6.80;;;2.40;;
59854;SDS011;45732;52.850;6.896;2023-04-24T13:11:23;9.85;;;2.10;;
59854;SDS011;45732;52.850;6.896;2023-04-24T13:13:50;5.78;;;1.60;;
59854;SDS011;45732;52.850;6.896;2023-04-24T13:16:16;5.30;;;1.48;;
59854;SDS011;45732;52.850;6.896;2023-04-24T13:18:42;5.88;;;1.38;;
59854;SDS011;45732;52.850;6.896;2023-04-24T13:21:08;5.22;;;1.63;;
59854;SDS011;45732;52.850;6.896;2023-04-24T13:23:33;3.72;;;1.10;;
59854;SDS011;45732;52.850;6.896;2023-04-24T13:25:59;4.35;;;1.15;;
59854;SDS011;45732;52.850;6.896;2023-04-24T13:28:26;5.75;;;1.27;;
59854;SDS011;45732;52.850;6.896;2023-04-24T13:30:52;6.53;;;1.40;;
59854;SDS011;45732;52.850;6.896;2023-04-24T13:33:18;7.90;;;1.60;;
59854;SDS011;45732;52.850;6.896;2023-04-24T13:35:44;5.63;;;1.55;;
59854;SDS011;45732;52.850;6.896;2023-04-24T13:38:09;4.55;;;1.48;;
59854;SDS011;45732;52.850;6.896;2023-04-24T13:40:35;6.38;;;1.30;;
59854;SDS011;45732;52.850;6.896;2023-04-24T13:43:01;8.65;;;1.42;;
59854;SDS011;45732;52.850;6.896;2023-04-24T13:45:27;7.15;;;1.40;;
59854;SDS011;45732;52.850;6.896;2023-04-24T13:47:53;7.50;;;1.33;;
59854;SDS011;45732;52.850;6.896;2023-04-24T13:50:19;4.90;;;1.40;;
59854;SDS011;45732;52.850;6.896;2023-04-24T13:52:45;6.80;;;1.77;;
59854;SDS011;45732;52.850;6.896;2023-04-24T13:55:11;5.28;;;1.30;;
59854;SDS011;45732;52.850;6.896;2023-04-24T13:57:37;5.75;;;1.17;;
59854;SDS011;45732;52.850;6.896;2023-04-24T14:00:02;6.00;;;1.30;;
59854;SDS011;45732;52.850;6.896;2023-04-24T14:02:29;10.55;;;1.80;;
59854;SDS011;45732;52.850;6.896;2023-04-24T14:04:55;5.90;;;1.23;;
59854;SDS011;45732;52.850;6.896;2023-04-24T14:07:21;7.63;;;1.52;;
59854;SDS011;45732;52.850;6.896;2023-04-24T14:09:46;7.63;;;1.80;;
59854;SDS011;45732;52.850;6.896;2023-04-24T14:12:12;5.50;;;1.50;;
59854;SDS011;45732;52.850;6.896;2023-04-24T14:14:39;6.40;;;1.67;;
59854;SDS011;45732;52.850;6.896;2023-04-24T14:17:05;5.22;;;1.50;;
59854;SDS011;45732;52.850;6.896;2023-04-24T14:19:30;5.32;;;1.40;;
59854;SDS011;45732;52.850;6.896;2023-04-24T14:21:56;5.45;;;1.38;;
59854;SDS011;45732;52.850;6.896;2023-04-24T14:24:23;4.10;;;1.30;;
59854;SDS011;45732;52.850;6.896;2023-04-24T14:26:49;6.05;;;1.58;;
59854;SDS011;45732;52.850;6.896;2023-04-24T14:29:15;7.28;;;1.60;;
59854;SDS011;45732;52.850;6.896;2023-04-24T14:31:41;9.20;;;1.88;;
59854;SDS011;45732;52.850;6.896;2023-04-24T14:34:08;6.38;;;1.55;;
59854;SDS011;45732;52.850;6.896;2023-04-24T14:36:34;8.52;;;2.00;;
59854;SDS011;45732;52.850;6.896;2023-04-24T14:39:00;8.13;;;1.70;;
59854;SDS011;45732;52.850;6.896;2023-04-24T14:41:30;6.55;;;1.60;;
59854;SDS011;45732;52.850;6.896;2023-04-24T14:43:56;5.72;;;1.63;;
59854;SDS011;45732;52.850;6.896;2023-04-24T14:46:22;7.20;;;1.58;;
59854;SDS011;45732;52.850;6.896;2023-04-24T14:48:48;5.93;;;1.50;;
59854;SDS011;45732;52.850;6.896;2023-04-24T14:51:13;6.75;;;2.00;;
59854;SDS011;45732;52.850;6.896;2023-04-24T14:53:39;10.02;;;1.90;;
59854;SDS011;45732;52.850;6.896;2023-04-24T14:56:05;8.80;;;1.90;;
59854;SDS011;45732;52.850;6.896;2023-04-24T14:58:31;14.60;;;2.42;;
59854;SDS011;45732;52.850;6.896;2023-04-24T15:00:57;9.98;;;2.10;;
59854;SDS011;45732;52.850;6.896;2023-04-24T15:03:23;10.48;;;2.50;;